Phoenix, Arizona
Traffic Map
Current Weather Conditions
Phoenix, Arizona
Clear
Clear
26°
Feels Like: 26°
Wind Chill: 26° Ceiling: Unl
Heat Index: 26° Visibility: 10mi
Dew Point: Wind: 5mph
Humidity: 36% Direction: 90° (E)
Pressure: 29.83in Gusts: 0mph
Raw Report DataKPHX 020551Z 09004KT 10SM CLR 26/09 A2983 RMK AO2 SLP086 T02560094 10317 20250 51013
Traffic Incident Summary
Active as of:
Severity:
Category:
InformationThere was an issue retrieving the traffic information for this location. Please try a different location or try again shortly.
Advertisements
Track Severe Weather on mobile